Time;durP1;ratioP1;P1;durP2;ratioP2;P2;SDS_P1;SDS_P2;PMS_P1;PMS_P2;Temp;Humidity;BMP_temperature;BMP_pressure;BME280_temperature;BME280_humidity;BME280_pressure;Samples;Min_cycle;Max_cycle;Signal;HPM_P1;HPM_P2
2022/09/15 00:00:01;;;;;;;5.78;4.07;;;;;;;;;;4993768;28;20030;-77
2022/09/15 00:02:26;;;;;;;10.43;4.43;;;;;;;;;;4994873;28;20022;-77
2022/09/15 00:04:51;;;;;;;9.55;4.28;;;;;;;;;;4993674;28;20026;-78
2022/09/15 00:07:16;;;;;;;12.00;4.87;;;;;;;;;;4995123;28;20026;-76
2022/09/15 00:09:41;;;;;;;10.17;4.90;;;;;;;;;;4995071;28;20303;-76
2022/09/15 00:12:07;;;;;;;10.43;4.65;;;;;;;;;;4994765;28;20295;-76
2022/09/15 00:14:32;;;;;;;7.15;4.13;;;;;;;;;;4994771;28;20472;-76
2022/09/15 00:16:57;;;;;;;10.10;4.77;;;;;;;;;;4995294;28;20030;-77
2022/09/15 00:19:23;;;;;;;6.73;4.27;;;;;;;;;;4995475;28;20271;-77
2022/09/15 00:21:48;;;;;;;7.37;4.30;;;;;;;;;;4995114;28;20268;-77
2022/09/15 00:24:13;;;;;;;6.90;4.13;;;;;;;;;;4995515;28;20820;-77
2022/09/15 00:26:38;;;;;;;9.63;4.95;;;;;;;;;;4994723;28;20729;-76
2022/09/15 00:29:04;;;;;;;11.57;5.05;;;;;;;;;;4994307;28;20034;-76
2022/09/15 00:31:30;;;;;;;8.00;4.40;;;;;;;;;;4993239;28;20030;-81
2022/09/15 00:33:57;;;;;;;10.48;4.70;;;;;;;;;;4993476;28;20121;-77
2022/09/15 00:36:24;;;;;;;10.35;4.68;;;;;;;;;;4994686;28;20104;-77
2022/09/15 00:38:49;;;;;;;6.53;4.05;;;;;;;;;;4994236;28;20022;-77
2022/09/15 00:41:17;;;;;;;7.95;4.40;;;;;;;;;;4994302;28;20398;-77
2022/09/15 00:43:50;;;;;;;9.48;4.65;;;;;;;;;;4993135;28;20129;-77
2022/09/15 00:46:20;;;;;;;8.63;4.77;;;;;;;;;;4994557;28;20529;-77
2022/09/15 00:49:01;;;;;;;7.93;4.40;;;;;;;;;;4994063;28;20113;-77
2022/09/15 00:51:49;;;;;;;9.73;4.43;;;;;;;;;;4994282;28;20033;-77
2022/09/15 00:54:18;;;;;;;9.43;4.75;;;;;;;;;;4996625;28;20109;-79
2022/09/15 00:56:46;;;;;;;10.00;4.75;;;;;;;;;;4998602;28;20053;-78
2022/09/15 00:59:16;;;;;;;8.82;4.35;;;;;;;;;;5000559;28;20095;-78
2022/09/15 01:01:44;;;;;;;11.43;4.95;;;;;;;;;;5001932;28;20033;-79
2022/09/15 01:04:10;;;;;;;8.07;5.07;;;;;;;;;;5000107;28;20030;-80
2022/09/15 01:06:40;;;;;;;8.43;4.93;;;;;;;;;;5000285;28;20057;-78
2022/09/15 01:09:16;;;;;;;10.70;4.90;;;;;;;;;;5002886;28;20027;-78
2022/09/15 01:11:42;;;;;;;13.15;5.03;;;;;;;;;;5003750;28;20037;-77
2022/09/15 01:14:07;;;;;;;7.80;4.70;;;;;;;;;;5002843;28;20022;-78
2022/09/15 01:16:50;;;;;;;11.40;4.93;;;;;;;;;;5001122;28;20369;-78
2022/09/15 01:19:54;;;;;;;8.00;4.22;;;;;;;;;;5000534;28;20097;-78
2022/09/15 01:23:04;;;;;;;10.35;4.55;;;;;;;;;;5002935;28;20480;-78
2022/09/15 01:26:26;;;;;;;16.30;4.78;;;;;;;;;;4993793;28;20464;-79
2022/09/15 01:29:00;;;;;;;14.40;4.75;;;;;;;;;;5001831;28;20033;-79
2022/09/15 01:33:02;;;;;;;12.77;4.68;;;;;;;;;;5002502;28;20434;-79
2022/09/15 01:34:28;;;;;;;12.13;3.95;;;;;;;;;;5002159;28;20037;-78
2022/09/15 01:36:58;;;;;;;11.85;3.92;;;;;;;;;;5001376;28;20050;-78
2022/09/15 01:39:28;;;;;;;12.85;3.78;;;;;;;;;;4985645;28;20049;-79
2022/09/15 01:42:05;;;;;;;8.35;3.45;;;;;;;;;;5000846;28;20029;-79
2022/09/15 01:44:37;;;;;;;7.90;3.22;;;;;;;;;;5000453;28;20042;-79
2022/09/15 01:47:06;;;;;;;16.30;3.75;;;;;;;;;;5005559;28;20022;-79
2022/09/15 01:49:46;;;;;;;9.13;3.35;;;;;;;;;;5006375;28;20022;-79
2022/09/15 01:52:16;;;;;;;10.07;3.63;;;;;;;;;;5006967;28;20057;-79
2022/09/15 01:54:47;;;;;;;10.48;3.83;;;;;;;;;;5006800;28;20041;-79
2022/09/15 01:57:16;;;;;;;8.38;3.60;;;;;;;;;;5006083;28;20037;-79
2022/09/15 01:59:41;;;;;;;7.78;3.72;;;;;;;;;;5006503;28;20085;-79
2022/09/15 02:02:13;;;;;;;11.75;3.97;;;;;;;;;;5006442;28;20053;-79
2022/09/15 02:04:51;;;;;;;9.88;3.72;;;;;;;;;;5006930;28;20104;-78
2022/09/15 02:07:27;;;;;;;7.75;3.97;;;;;;;;;;5003453;28;20094;-78
2022/09/15 02:10:11;;;;;;;15.55;5.80;;;;;;;;;;5006029;28;20111;-79
2022/09/15 02:12:46;;;;;;;11.25;5.50;;;;;;;;;;5003150;28;20033;-79
2022/09/15 02:15:15;;;;;;;11.30;5.07;;;;;;;;;;5004502;28;20030;-79
2022/09/15 02:17:44;;;;;;;11.07;5.15;;;;;;;;;;5004958;28;20026;-79
2022/09/15 02:20:48;;;;;;;18.60;5.50;;;;;;;;;;5004422;28;20027;-78
2022/09/15 02:23:25;;;;;;;12.23;5.53;;;;;;;;;;5002793;28;20026;-79
2022/09/15 02:25:55;;;;;;;13.50;6.00;;;;;;;;;;5002291;28;20117;-79
2022/09/15 02:28:28;;;;;;;19.77;6.28;;;;;;;;;;5002892;28;20023;-79
2022/09/15 02:30:57;;;;;;;17.25;6.90;;;;;;;;;;5001052;28;20058;-78
2022/09/15 02:33:27;;;;;;;13.25;6.50;;;;;;;;;;5002623;28;20402;-79
2022/09/15 02:35:53;;;;;;;17.38;7.15;;;;;;;;;;5003932;28;20101;-77
2022/09/15 02:38:18;;;;;;;17.63;6.57;;;;;;;;;;4986187;28;20069;-78
2022/09/15 02:40:43;;;;;;;19.57;7.43;;;;;;;;;;5003602;28;20065;-77
2022/09/15 02:43:12;;;;;;;10.68;6.68;;;;;;;;;;5004404;28;20260;-78
2022/09/15 02:45:38;;;;;;;14.57;7.38;;;;;;;;;;5005828;28;20030;-79
2022/09/15 02:48:03;;;;;;;16.55;7.85;;;;;;;;;;5004515;28;20081;-77
2022/09/15 02:50:29;;;;;;;13.90;6.80;;;;;;;;;;5004205;28;20027;-80
2022/09/15 02:52:55;;;;;;;15.43;7.10;;;;;;;;;;5003582;28;20061;-79
2022/09/15 02:55:22;;;;;;;17.00;6.20;;;;;;;;;;5005350;28;20026;-78
2022/09/15 02:57:47;;;;;;;13.65;6.55;;;;;;;;;;5003092;28;20025;-78
2022/09/15 03:00:15;;;;;;;14.38;6.13;;;;;;;;;;5004105;28;20034;-77
2022/09/15 03:02:44;;;;;;;13.90;5.88;;;;;;;;;;5000847;28;20380;-78
2022/09/15 03:05:10;;;;;;;13.15;6.05;;;;;;;;;;5004059;28;20439;-78
2022/09/15 03:07:37;;;;;;;16.35;5.78;;;;;;;;;;5004413;28;20234;-78
2022/09/15 03:10:04;;;;;;;11.65;6.28;;;;;;;;;;5005759;28;20082;-78
2022/09/15 03:12:29;;;;;;;16.67;6.13;;;;;;;;;;5002621;28;20376;-78
2022/09/15 03:14:54;;;;;;;13.10;6.30;;;;;;;;;;5000858;28;20045;-78
2022/09/15 03:17:19;;;;;;;18.30;5.90;;;;;;;;;;4999597;28;20284;-78
2022/09/15 03:19:45;;;;;;;12.27;5.83;;;;;;;;;;5004599;28;20029;-78
2022/09/15 03:22:10;;;;;;;12.35;5.60;;;;;;;;;;5003770;28;20260;-79
2022/09/15 03:24:36;;;;;;;12.02;5.80;;;;;;;;;;5004166;28;20026;-79
2022/09/15 03:27:01;;;;;;;11.85;5.68;;;;;;;;;;5001174;28;20026;-77
2022/09/15 03:29:27;;;;;;;15.27;5.72;;;;;;;;;;5001572;28;20030;-79
2022/09/15 03:31:52;;;;;;;13.02;5.70;;;;;;;;;;5003015;28;20036;-79
2022/09/15 03:34:17;;;;;;;14.40;5.75;;;;;;;;;;4998762;28;20030;-78
2022/09/15 03:36:43;;;;;;;15.20;5.95;;;;;;;;;;4998786;28;20018;-79
2022/09/15 03:39:10;;;;;;;11.25;6.40;;;;;;;;;;4998980;28;20030;-79
2022/09/15 03:41:36;;;;;;;10.13;5.70;;;;;;;;;;5001004;28;20516;-79
2022/09/15 03:44:01;;;;;;;12.80;6.20;;;;;;;;;;5000434;28;20030;-78
2022/09/15 03:46:28;;;;;;;10.77;5.93;;;;;;;;;;5000340;28;20291;-78
2022/09/15 03:48:53;;;;;;;16.75;6.38;;;;;;;;;;5004091;28;20106;-80
2022/09/15 03:51:19;;;;;;;11.68;6.15;;;;;;;;;;5002365;28;20064;-78
2022/09/15 03:53:44;;;;;;;12.82;5.88;;;;;;;;;;5003809;28;20026;-79
2022/09/15 03:56:20;;;;;;;11.40;5.65;;;;;;;;;;5003465;28;20034;-78
2022/09/15 03:58:45;;;;;;;14.63;6.18;;;;;;;;;;5002924;28;20026;-79
2022/09/15 04:01:11;;;;;;;9.33;5.57;;;;;;;;;;5003238;28;20031;-79
2022/09/15 04:03:36;;;;;;;10.38;5.88;;;;;;;;;;5002673;28;20272;-81
2022/09/15 04:06:02;;;;;;;12.70;5.85;;;;;;;;;;5003321;28;20030;-81
2022/09/15 04:08:27;;;;;;;11.00;5.88;;;;;;;;;;5002443;28;20391;-78
2022/09/15 04:10:53;;;;;;;13.52;5.35;;;;;;;;;;5002151;28;20026;-78
2022/09/15 04:13:19;;;;;;;14.30;6.65;;;;;;;;;;5000789;28;20049;-81
2022/09/15 04:15:44;;;;;;;16.27;6.40;;;;;;;;;;5002856;28;20030;-80
2022/09/15 04:18:10;;;;;;;13.05;6.22;;;;;;;;;;5001075;28;20479;-79
2022/09/15 04:20:38;;;;;;;13.13;6.10;;;;;;;;;;5002882;28;20153;-80
2022/09/15 04:23:03;;;;;;;13.90;6.57;;;;;;;;;;5002665;28;20646;-78
2022/09/15 04:25:28;;;;;;;11.80;6.00;;;;;;;;;;5002984;28;20046;-78
2022/09/15 04:27:55;;;;;;;13.00;6.00;;;;;;;;;;5002057;28;20061;-78
2022/09/15 04:30:21;;;;;;;11.43;5.80;;;;;;;;;;5001838;28;20541;-79
2022/09/15 04:32:47;;;;;;;13.50;5.93;;;;;;;;;;5002020;28;20038;-80
2022/09/15 04:35:12;;;;;;;13.90;6.88;;;;;;;;;;5002361;28;20029;-79
2022/09/15 04:37:38;;;;;;;13.32;6.03;;;;;;;;;;5001273;28;20026;-78
2022/09/15 04:40:08;;;;;;;13.82;6.60;;;;;;;;;;5002159;28;20022;-78
2022/09/15 04:42:34;;;;;;;14.48;6.78;;;;;;;;;;4999980;28;20380;-78
2022/09/15 04:44:59;;;;;;;19.23;6.40;;;;;;;;;;5002122;28;20081;-78
2022/09/15 04:47:24;;;;;;;17.38;6.85;;;;;;;;;;5002002;28;20275;-79
2022/09/15 04:50:22;;;;;;;14.43;6.67;;;;;;;;;;5001093;28;20030;-77
2022/09/15 04:52:47;;;;;;;14.23;6.43;;;;;;;;;;5000818;28;20268;-78
2022/09/15 04:55:12;;;;;;;12.20;6.50;;;;;;;;;;5001552;28;20436;-79
2022/09/15 04:57:38;;;;;;;9.13;6.47;;;;;;;;;;5001194;28;20657;-78
2022/09/15 05:00:05;;;;;;;12.07;6.33;;;;;;;;;;5000116;28;20053;-78
2022/09/15 05:02:31;;;;;;;11.88;6.25;;;;;;;;;;4999731;28;20271;-78
2022/09/15 05:04:57;;;;;;;14.05;6.10;;;;;;;;;;5000995;28;20030;-80
2022/09/15 05:07:22;;;;;;;13.65;6.80;;;;;;;;;;4999059;28;20546;-79
2022/09/15 05:09:47;;;;;;;12.23;6.75;;;;;;;;;;5000649;28;20030;-78
2022/09/15 05:12:13;;;;;;;13.30;6.90;;;;;;;;;;5000416;28;20026;-77
2022/09/15 05:14:38;;;;;;;14.00;7.30;;;;;;;;;;4998195;28;20254;-78
2022/09/15 05:17:03;;;;;;;14.77;7.15;;;;;;;;;;5000729;28;20496;-79
2022/09/15 05:19:29;;;;;;;14.53;7.30;;;;;;;;;;5002407;28;20058;-78
2022/09/15 05:21:54;;;;;;;11.90;6.60;;;;;;;;;;5002445;28;20260;-79
2022/09/15 05:24:19;;;;;;;17.13;7.00;;;;;;;;;;5003401;28;20267;-79
2022/09/15 05:26:44;;;;;;;19.50;7.40;;;;;;;;;;5003354;28;20264;-79
2022/09/15 05:29:09;;;;;;;19.03;7.93;;;;;;;;;;5004068;28;20049;-80
2022/09/15 05:31:35;;;;;;;15.07;7.67;;;;;;;;;;5005325;28;20741;-78
2022/09/15 05:34:02;;;;;;;17.83;8.10;;;;;;;;;;5002934;28;20272;-79
2022/09/15 05:36:28;;;;;;;16.52;7.30;;;;;;;;;;5002654;28;20264;-80
2022/09/15 05:38:57;;;;;;;14.68;7.40;;;;;;;;;;5001976;28;20046;-79
2022/09/15 05:41:24;;;;;;;16.33;7.35;;;;;;;;;;5002347;28;20030;-80
2022/09/15 05:43:50;;;;;;;19.90;8.27;;;;;;;;;;4999829;28;20038;-80
2022/09/15 05:46:16;;;;;;;15.13;7.32;;;;;;;;;;5000762;28;20140;-78
2022/09/15 05:48:42;;;;;;;21.77;8.50;;;;;;;;;;4999628;28;20034;-79
2022/09/15 05:51:07;;;;;;;15.05;8.07;;;;;;;;;;5001842;28;20035;-77
2022/09/15 05:53:34;;;;;;;14.57;7.68;;;;;;;;;;5000650;28;20030;-78
2022/09/15 05:56:04;;;;;;;16.67;8.20;;;;;;;;;;4999708;28;20399;-78
2022/09/15 05:58:30;;;;;;;14.68;7.78;;;;;;;;;;5001268;28;20022;-78
2022/09/15 06:01:01;;;;;;;14.35;7.88;;;;;;;;;;5002578;28;20023;-79
2022/09/15 06:03:26;;;;;;;14.25;6.93;;;;;;;;;;5000678;28;20038;-79
2022/09/15 06:05:59;;;;;;;17.50;7.32;;;;;;;;;;5001125;28;20439;-79
2022/09/15 06:08:24;;;;;;;11.75;6.72;;;;;;;;;;4997631;28;20038;-80
2022/09/15 06:10:49;;;;;;;14.82;7.90;;;;;;;;;;4994402;28;20391;-80
2022/09/15 06:13:14;;;;;;;16.30;7.10;;;;;;;;;;4995525;28;20026;-80
2022/09/15 06:15:40;;;;;;;12.00;6.67;;;;;;;;;;4997190;28;20293;-77
2022/09/15 06:18:05;;;;;;;15.67;7.60;;;;;;;;;;4997751;28;20248;-76
2022/09/15 06:20:30;;;;;;;13.50;6.57;;;;;;;;;;4998329;28;20260;-77
2022/09/15 06:22:55;;;;;;;17.40;6.63;;;;;;;;;;4998835;28;20399;-78
2022/09/15 06:25:21;;;;;;;12.85;6.15;;;;;;;;;;4997444;28;20022;-78
2022/09/15 06:27:48;;;;;;;10.30;6.17;;;;;;;;;;4996518;28;20030;-80
2022/09/15 06:30:13;;;;;;;10.07;5.70;;;;;;;;;;4996330;28;20660;-78
2022/09/15 06:32:39;;;;;;;9.48;5.35;;;;;;;;;;4996507;28;20022;-78
2022/09/15 06:35:07;;;;;;;14.50;5.43;;;;;;;;;;4999144;28;20022;-78
2022/09/15 06:37:33;;;;;;;15.18;5.32;;;;;;;;;;4999678;28;20117;-78
2022/09/15 06:39:58;;;;;;;12.65;5.10;;;;;;;;;;4999878;28;20027;-77
2022/09/15 06:42:24;;;;;;;15.15;4.93;;;;;;;;;;5000589;28;20068;-78
2022/09/15 06:44:49;;;;;;;12.47;4.80;;;;;;;;;;4998975;28;20030;-78
2022/09/15 06:47:14;;;;;;;10.93;4.93;;;;;;;;;;5000454;28;20297;-77
2022/09/15 06:49:39;;;;;;;11.30;4.95;;;;;;;;;;4999312;28;20320;-79
2022/09/15 06:52:05;;;;;;;9.87;4.40;;;;;;;;;;5000011;28;20116;-79
2022/09/15 06:54:30;;;;;;;12.07;4.80;;;;;;;;;;5000590;28;20264;-77
2022/09/15 06:56:55;;;;;;;8.87;4.40;;;;;;;;;;5000304;28;20112;-79
2022/09/15 06:59:22;;;;;;;8.93;4.28;;;;;;;;;;5000226;28;20264;-79
2022/09/15 07:01:51;;;;;;;11.70;4.53;;;;;;;;;;5000706;28;20056;-79
2022/09/15 07:04:17;;;;;;;12.77;3.90;;;;;;;;;;5000208;28;20030;-80
2022/09/15 07:06:42;;;;;;;8.10;4.17;;;;;;;;;;5000076;28;20054;-79
2022/09/15 07:09:09;;;;;;;12.20;4.67;;;;;;;;;;4999609;28;20367;-78
2022/09/15 07:11:34;;;;;;;11.60;4.10;;;;;;;;;;4999662;28;20298;-78
2022/09/15 07:13:59;;;;;;;14.50;3.97;;;;;;;;;;4999252;28;20057;-81
2022/09/15 07:16:25;;;;;;;14.02;3.70;;;;;;;;;;5001288;28;20268;-77
2022/09/15 07:18:53;;;;;;;12.95;4.10;;;;;;;;;;5001976;28;20472;-78
2022/09/15 07:21:19;;;;;;;11.98;3.50;;;;;;;;;;5003124;28;20480;-77
2022/09/15 07:23:45;;;;;;;14.88;3.50;;;;;;;;;;5001405;28;20030;-78
2022/09/15 07:26:11;;;;;;;7.10;2.72;;;;;;;;;;5001165;28;20030;-78
2022/09/15 07:28:39;;;;;;;9.57;3.22;;;;;;;;;;5000475;28;20038;-76
2022/09/15 07:31:05;;;;;;;8.80;3.15;;;;;;;;;;5000508;28;20507;-77
2022/09/15 07:33:32;;;;;;;7.70;3.03;;;;;;;;;;4999358;28;20022;-77
2022/09/15 07:35:57;;;;;;;8.35;3.13;;;;;;;;;;5000574;28;20030;-77
2022/09/15 07:38:22;;;;;;;10.32;3.35;;;;;;;;;;4999728;28;20041;-77
2022/09/15 07:40:48;;;;;;;12.20;3.47;;;;;;;;;;4999685;28;20050;-77
2022/09/15 07:43:14;;;;;;;11.93;3.40;;;;;;;;;;4999923;28;20026;-77
2022/09/15 07:45:39;;;;;;;11.95;3.10;;;;;;;;;;4999616;28;20088;-78
2022/09/15 07:48:05;;;;;;;8.68;3.05;;;;;;;;;;5000316;28;20476;-78
2022/09/15 07:50:30;;;;;;;8.05;3.35;;;;;;;;;;4999048;28;20018;-78
2022/09/15 07:52:55;;;;;;;10.20;3.50;;;;;;;;;;4999038;28;20041;-78
2022/09/15 07:55:21;;;;;;;8.93;3.33;;;;;;;;;;4998911;28;20030;-78
2022/09/15 07:57:46;;;;;;;10.85;3.17;;;;;;;;;;5000605;28;20113;-78
2022/09/15 08:00:14;;;;;;;9.50;3.73;;;;;;;;;;4997948;28;20116;-77
2022/09/15 08:02:39;;;;;;;8.68;2.53;;;;;;;;;;4997256;28;20852;-77
2022/09/15 08:05:05;;;;;;;10.75;2.67;;;;;;;;;;4995295;28;20030;-77
2022/09/15 08:07:30;;;;;;;7.75;2.65;;;;;;;;;;4995038;28;20022;-76
2022/09/15 08:09:55;;;;;;;8.75;2.40;;;;;;;;;;4995246;28;20018;-76
2022/09/15 08:12:20;;;;;;;7.45;2.40;;;;;;;;;;4996356;28;20050;-77
2022/09/15 08:14:46;;;;;;;7.10;1.80;;;;;;;;;;4993948;28;20076;-76
2022/09/15 08:17:11;;;;;;;11.45;2.42;;;;;;;;;;4996435;28;20291;-78
2022/09/15 08:19:36;;;;;;;8.60;2.60;;;;;;;;;;4995360;28;20053;-77
2022/09/15 08:22:01;;;;;;;10.38;2.53;;;;;;;;;;4995377;28;20287;-78
2022/09/15 08:24:28;;;;;;;6.60;2.40;;;;;;;;;;4998883;28;20380;-77
2022/09/15 08:26:53;;;;;;;10.52;2.83;;;;;;;;;;4997477;28;20757;-77
2022/09/15 08:29:19;;;;;;;10.50;2.67;;;;;;;;;;4998068;28;20045;-77
2022/09/15 08:31:45;;;;;;;7.70;3.15;;;;;;;;;;4998583;28;20549;-77
2022/09/15 08:34:12;;;;;;;7.55;2.35;;;;;;;;;;4996576;28;20376;-78
2022/09/15 08:36:38;;;;;;;11.38;2.80;;;;;;;;;;4994597;28;20112;-77
2022/09/15 08:39:04;;;;;;;10.35;2.95;;;;;;;;;;4995383;28;20399;-78
2022/09/15 08:41:36;;;;;;;8.73;2.83;;;;;;;;;;4998014;28;20023;-78
2022/09/15 08:44:17;;;;;;;7.47;3.10;;;;;;;;;;4996582;28;20487;-78
2022/09/15 08:47:01;;;;;;;9.68;3.70;;;;;;;;;;4995016;28;20041;-77
2022/09/15 08:49:30;;;;;;;9.30;4.50;;;;;;;;;;4996152;28;20077;-78
2022/09/15 08:52:02;;;;;;;10.23;4.68;;;;;;;;;;4996586;28;20399;-78
2022/09/15 08:54:28;;;;;;;11.07;4.60;;;;;;;;;;4996743;28;20022;-77
2022/09/15 08:56:55;;;;;;;8.35;4.50;;;;;;;;;;4994424;28;20383;-77
2022/09/15 08:59:21;;;;;;;13.90;4.70;;;;;;;;;;4994420;28;20535;-77
2022/09/15 09:02:16;;;;;;;9.75;4.40;;;;;;;;;;4994186;28;20105;-77
2022/09/15 09:05:04;;;;;;;11.20;4.20;;;;;;;;;;4993906;28;20057;-77
2022/09/15 09:07:55;;;;;;;10.50;4.20;;;;;;;;;;4994174;28;20511;-77
2022/09/15 09:11:02;;;;;;;9.65;3.72;;;;;;;;;;4995225;28;20050;-76
2022/09/15 09:13:57;;;;;;;9.27;3.33;;;;;;;;;;4992996;28;20403;-77
2022/09/15 09:16:48;;;;;;;6.05;3.25;;;;;;;;;;4994807;28;20026;-77
2022/09/15 09:19:37;;;;;;;8.65;3.35;;;;;;;;;;4995059;28;20026;-77
2022/09/15 09:22:09;;;;;;;9.25;2.75;;;;;;;;;;4995050;28;20026;-78
2022/09/15 09:24:46;;;;;;;6.97;2.65;;;;;;;;;;4995419;28;20022;-77
2022/09/15 09:27:14;;;;;;;13.73;2.90;;;;;;;;;;4993814;28;20058;-77
2022/09/15 09:29:48;;;;;;;7.03;2.78;;;;;;;;;;4995313;28;20554;-78
2022/09/15 09:32:32;;;;;;;7.55;2.97;;;;;;;;;;4995339;28;20030;-78
2022/09/15 09:35:14;;;;;;;8.90;2.72;;;;;;;;;;4995455;28;20038;-78
2022/09/15 09:37:54;;;;;;;6.82;2.47;;;;;;;;;;4995691;28;20027;-78
2022/09/15 09:40:20;;;;;;;4.95;1.75;;;;;;;;;;4994761;28;20401;-77
2022/09/15 09:42:46;;;;;;;7.43;2.03;;;;;;;;;;4993681;28;20041;-77
2022/09/15 09:45:17;;;;;;;6.85;2.17;;;;;;;;;;4994593;28;20105;-77
2022/09/15 09:47:42;;;;;;;4.45;1.70;;;;;;;;;;4994234;28;20105;-78
2022/09/15 09:50:34;;;;;;;3.13;1.52;;;;;;;;;;4994042;28;20050;-77
2022/09/15 09:53:16;;;;;;;5.40;1.90;;;;;;;;;;4993155;28;20025;-77
2022/09/15 09:55:41;;;;;;;4.25;1.60;;;;;;;;;;4994799;28;20395;-78
2022/09/15 09:58:13;;;;;;;7.82;1.90;;;;;;;;;;4995382;28;20022;-78
2022/09/15 10:00:39;;;;;;;4.00;1.58;;;;;;;;;;4993538;28;20037;-77
2022/09/15 10:03:14;;;;;;;10.95;2.20;;;;;;;;;;4994343;28;20026;-77
2022/09/15 10:05:40;;;;;;;5.25;1.65;;;;;;;;;;4994410;28;20525;-77
2022/09/15 10:08:05;;;;;;;4.07;1.80;;;;;;;;;;4997177;28;20061;-77
2022/09/15 10:10:31;;;;;;;3.95;1.42;;;;;;;;;;4997224;28;20030;-77
2022/09/15 10:12:57;;;;;;;8.60;1.85;;;;;;;;;;4997217;28;20026;-77
2022/09/15 10:15:26;;;;;;;4.25;1.63;;;;;;;;;;4997588;28;20030;-77
2022/09/15 10:17:54;;;;;;;9.85;2.08;;;;;;;;;;4998008;28;20474;-76
2022/09/15 10:20:36;;;;;;;7.07;2.28;;;;;;;;;;4997626;28;20101;-76
2022/09/15 10:23:05;;;;;;;7.43;2.03;;;;;;;;;;4997720;28;20034;-75
2022/09/15 10:25:34;;;;;;;5.07;1.67;;;;;;;;;;4996197;28;20022;-77
2022/09/15 10:28:00;;;;;;;10.63;2.30;;;;;;;;;;4997015;28;20165;-76
2022/09/15 10:30:32;;;;;;;5.38;1.80;;;;;;;;;;4998871;28;20081;-78
2022/09/15 10:33:17;;;;;;;7.70;1.90;;;;;;;;;;4998432;28;20026;-77
2022/09/15 10:35:47;;;;;;;4.15;1.60;;;;;;;;;;4996960;28;20030;-77
2022/09/15 10:38:18;;;;;;;7.03;1.58;;;;;;;;;;4996617;28;20085;-76
2022/09/15 10:41:19;;;;;;;4.22;1.70;;;;;;;;;;4997031;28;20435;-76
2022/09/15 10:44:09;;;;;;;3.22;1.40;;;;;;;;;;4995206;28;20026;-77
2022/09/15 10:46:49;;;;;;;4.75;1.25;;;;;;;;;;4995128;28;20022;-76
2022/09/15 10:49:37;;;;;;;4.68;1.50;;;;;;;;;;4996379;28;20381;-77
2022/09/15 10:52:25;;;;;;;4.38;1.38;;;;;;;;;;4996555;28;20039;-76
2022/09/15 10:55:30;;;;;;;4.10;1.33;;;;;;;;;;4995203;28;20541;-77
2022/09/15 10:58:31;;;;;;;3.45;1.20;;;;;;;;;;4996101;28;20030;-77
2022/09/15 11:01:26;;;;;;;5.55;1.42;;;;;;;;;;4996962;28;20438;-76
2022/09/15 11:04:20;;;;;;;7.05;1.58;;;;;;;;;;4996785;28;20026;-76
2022/09/15 11:07:02;;;;;;;2.72;1.30;;;;;;;;;;4996748;28;20185;-76
2022/09/15 11:09:42;;;;;;;4.13;1.40;;;;;;;;;;4995936;28;20169;-76
2022/09/15 11:12:35;;;;;;;3.45;1.35;;;;;;;;;;4994884;28;20029;-76
2022/09/15 11:15:34;;;;;;;5.07;1.52;;;;;;;;;;4996291;28;20387;-76
2022/09/15 11:18:18;;;;;;;4.70;1.60;;;;;;;;;;4994933;28;20040;-76
2022/09/15 11:21:01;;;;;;;4.25;1.50;;;;;;;;;;4995517;28;20030;-74
2022/09/15 11:23:38;;;;;;;7.88;1.70;;;;;;;;;;4995989;28;20022;-76
2022/09/15 11:26:14;;;;;;;5.13;1.70;;;;;;;;;;4996104;28;20026;-78
2022/09/15 11:28:49;;;;;;;5.88;1.90;;;;;;;;;;4995298;28;20421;-76
2022/09/15 11:31:26;;;;;;;7.60;2.10;;;;;;;;;;4996044;28;20081;-76
2022/09/15 11:34:15;;;;;;;6.43;2.08;;;;;;;;;;4996097;28;20037;-77
2022/09/15 11:36:58;;;;;;;4.22;1.88;;;;;;;;;;4995971;28;20514;-77
2022/09/15 11:39:35;;;;;;;4.95;2.00;;;;;;;;;;4994310;28;20369;-77
2022/09/15 11:42:09;;;;;;;6.32;1.50;;;;;;;;;;4995734;28;20061;-76
2022/09/15 11:44:43;;;;;;;4.85;1.77;;;;;;;;;;4995768;28;20034;-76
2022/09/15 11:47:26;;;;;;;2.95;1.40;;;;;;;;;;4995911;28;20022;-77
2022/09/15 11:50:00;;;;;;;4.43;1.45;;;;;;;;;;4995219;28;20026;-77
2022/09/15 11:52:43;;;;;;;5.68;1.50;;;;;;;;;;4995640;28;20125;-77
2022/09/15 11:55:33;;;;;;;7.25;1.60;;;;;;;;;;4995849;28;20030;-77
2022/09/15 11:58:28;;;;;;;3.47;1.60;;;;;;;;;;4995424;28;20022;-77
2022/09/15 12:01:05;;;;;;;7.82;1.73;;;;;;;;;;4995516;28;20034;-77
2022/09/15 12:03:45;;;;;;;3.65;1.55;;;;;;;;;;4995208;28;20022;-76
2022/09/15 12:06:15;;;;;;;4.78;1.52;;;;;;;;;;4993946;28;20058;-77
2022/09/15 12:08:52;;;;;;;5.03;1.63;;;;;;;;;;4995747;28;20026;-76
2022/09/15 12:11:21;;;;;;;6.97;2.00;;;;;;;;;;4995524;28;20065;-76
2022/09/15 12:13:47;;;;;;;5.32;1.55;;;;;;;;;;4995532;28;20105;-77
2022/09/15 12:16:13;;;;;;;4.80;1.90;;;;;;;;;;4995919;28;20058;-77
2022/09/15 12:19:11;;;;;;;4.82;1.40;;;;;;;;;;4994370;28;20484;-77
2022/09/15 12:21:54;;;;;;;6.97;1.60;;;;;;;;;;4995173;28;20038;-77
2022/09/15 12:24:39;;;;;;;5.43;1.83;;;;;;;;;;4993366;28;20026;-77
2022/09/15 12:27:14;;;;;;;5.45;1.70;;;;;;;;;;4993526;28;20399;-76
2022/09/15 12:29:47;;;;;;;7.22;1.73;;;;;;;;;;4994724;28;20027;-77
2022/09/15 12:32:23;;;;;;;4.05;1.60;;;;;;;;;;4994908;28;20105;-76
2022/09/15 12:35:03;;;;;;;3.97;1.65;;;;;;;;;;4995045;28;20034;-76
2022/09/15 12:37:44;;;;;;;2.75;1.60;;;;;;;;;;4995289;28;20101;-75
2022/09/15 12:40:36;;;;;;;4.55;1.67;;;;;;;;;;4994828;28;20026;-77
2022/09/15 12:43:10;;;;;;;4.57;1.70;;;;;;;;;;4994537;28;20149;-77
2022/09/15 12:45:37;;;;;;;5.25;1.90;;;;;;;;;;4994322;28;20506;-77
2022/09/15 12:48:05;;;;;;;2.30;1.70;;;;;;;;;;4995407;28;20041;-77
2022/09/15 12:50:36;;;;;;;5.32;2.05;;;;;;;;;;4994146;28;20030;-78
2022/09/15 12:53:16;;;;;;;3.53;1.58;;;;;;;;;;4994753;28;20043;-77
2022/09/15 12:55:55;;;;;;;4.53;1.75;;;;;;;;;;4994885;28;20022;-77
2022/09/15 12:58:32;;;;;;;4.00;1.90;;;;;;;;;;4993042;28;20027;-77
2022/09/15 13:01:23;;;;;;;3.58;1.88;;;;;;;;;;4994420;28;20475;-76
2022/09/15 13:03:57;;;;;;;2.95;1.60;;;;;;;;;;4994075;28;20590;-78
2022/09/15 13:06:27;;;;;;;6.80;1.90;;;;;;;;;;4993865;28;20027;-76
2022/09/15 13:09:04;;;;;;;5.45;1.90;;;;;;;;;;4994048;28;20105;-77
2022/09/15 13:11:38;;;;;;;5.18;2.03;;;;;;;;;;4992856;28;20033;-77
2022/09/15 13:14:05;;;;;;;6.13;1.88;;;;;;;;;;4994955;28;20054;-76
2022/09/15 13:16:43;;;;;;;4.25;1.98;;;;;;;;;;4994087;28;20406;-77
2022/09/15 13:19:34;;;;;;;3.70;1.65;;;;;;;;;;4993804;28;20030;-78
2022/09/15 13:22:13;;;;;;;5.95;2.17;;;;;;;;;;4994771;28;20399;-77
2022/09/15 13:24:46;;;;;;;5.38;1.90;;;;;;;;;;4994346;28;20026;-77
2022/09/15 13:27:13;;;;;;;4.65;2.20;;;;;;;;;;4993700;28;20145;-77
2022/09/15 13:29:48;;;;;;;3.58;1.77;;;;;;;;;;4993700;28;20040;-77
2022/09/15 13:32:38;;;;;;;4.88;1.95;;;;;;;;;;4993905;28;20026;-77
2022/09/15 13:35:25;;;;;;;3.60;2.00;;;;;;;;;;4994156;28;20026;-77
2022/09/15 13:38:13;;;;;;;3.25;1.90;;;;;;;;;;4993571;28;20026;-78
2022/09/15 13:41:05;;;;;;;3.10;1.83;;;;;;;;;;4994610;28;20403;-77
2022/09/15 13:44:01;;;;;;;4.82;2.20;;;;;;;;;;4996839;28;20045;-78
2022/09/15 13:47:04;;;;;;;3.83;2.30;;;;;;;;;;4997905;28;20018;-79
2022/09/15 13:49:44;;;;;;;5.15;2.05;;;;;;;;;;4996495;28;20031;-77
2022/09/15 13:52:22;;;;;;;6.70;2.03;;;;;;;;;;4997821;28;20022;-77
2022/09/15 13:55:26;;;;;;;4.03;1.98;;;;;;;;;;4997802;28;20391;-77
2022/09/15 13:57:54;;;;;;;3.67;2.20;;;;;;;;;;4997819;28;20031;-76
2022/09/15 14:00:32;;;;;;;4.47;2.15;;;;;;;;;;4998291;28;20061;-79
2022/09/15 14:03:07;;;;;;;3.53;2.15;;;;;;;;;;4999092;28;20453;-78
2022/09/15 14:05:34;;;;;;;7.82;2.67;;;;;;;;;;5000712;28;20116;-78
2022/09/15 14:08:04;;;;;;;4.95;2.17;;;;;;;;;;4998651;28;20077;-77
2022/09/15 14:10:37;;;;;;;3.58;2.00;;;;;;;;;;4997433;28;20037;-78
2022/09/15 14:13:02;;;;;;;4.03;2.00;;;;;;;;;;4997448;28;20030;-77
2022/09/15 14:15:28;;;;;;;4.45;1.70;;;;;;;;;;4997261;28;20069;-75
2022/09/15 14:17:54;;;;;;;4.85;1.90;;;;;;;;;;4996441;28;20393;-77
2022/09/15 14:20:30;;;;;;;3.40;1.67;;;;;;;;;;4998009;28;20041;-77
2022/09/15 14:22:56;;;;;;;3.38;1.80;;;;;;;;;;4997456;28;20076;-77
2022/09/15 14:25:22;;;;;;;2.55;1.42;;;;;;;;;;4995903;28;20065;-77
2022/09/15 14:27:50;;;;;;;2.95;1.58;;;;;;;;;;4995703;28;20062;-77
2022/09/15 14:30:26;;;;;;;3.28;1.50;;;;;;;;;;4997334;28;20115;-76
2022/09/15 14:32:55;;;;;;;3.55;1.50;;;;;;;;;;4997928;28;20029;-77
2022/09/15 14:35:30;;;;;;;3.45;1.58;;;;;;;;;;4998346;28;20026;-77
2022/09/15 14:37:59;;;;;;;2.63;1.50;;;;;;;;;;4997792;28;20064;-78
2022/09/15 14:40:28;;;;;;;2.53;1.27;;;;;;;;;;4997797;28;20053;-78
2022/09/15 14:42:54;;;;;;;3.60;1.67;;;;;;;;;;4997018;28;20381;-76
2022/09/15 14:45:35;;;;;;;3.03;1.58;;;;;;;;;;4996545;28;20029;-78
2022/09/15 14:48:05;;;;;;;6.15;1.65;;;;;;;;;;4996681;28;20034;-77
2022/09/15 14:50:30;;;;;;;7.63;1.60;;;;;;;;;;4996448;28;20062;-76
2022/09/15 14:53:09;;;;;;;4.10;1.35;;;;;;;;;;4995206;28;20070;-76
2022/09/15 14:55:54;;;;;;;8.60;1.60;;;;;;;;;;4996945;28;20030;-78
2022/09/15 14:58:26;;;;;;;5.88;1.42;;;;;;;;;;4996554;28;20387;-76
2022/09/15 15:01:01;;;;;;;6.80;1.80;;;;;;;;;;4995033;28;20034;-78
2022/09/15 15:03:41;;;;;;;3.35;1.40;;;;;;;;;;4995833;28;20030;-77